createdAt,value
2023-04-08T00:01:10.067Z,7.07
2023-04-08T00:05:38.897Z,6.93
2023-04-08T00:10:07.813Z,6.82
2023-04-08T00:14:36.902Z,6.77
2023-04-08T00:19:15.792Z,6.71
2023-04-08T00:23:46.940Z,6.63
2023-04-08T00:27:57.581Z,6.57
2023-04-08T00:32:26.745Z,6.49
2023-04-08T00:36:55.759Z,6.32
2023-04-08T00:41:24.510Z,6.20
2023-04-08T00:52:46.447Z,6.19
2023-04-08T00:57:15.252Z,6.09
2023-04-08T01:01:49.482Z,6.15
2023-04-08T01:06:37.385Z,6.14
2023-04-08T01:11:06.162Z,6.34
2023-04-08T01:15:38.122Z,6.43
2023-04-08T01:19:36.001Z,6.50
2023-04-08T01:23:41.471Z,6.61
2023-04-08T01:27:22.558Z,6.64
2023-04-08T01:31:26.431Z,6.72
2023-04-08T01:34:55.538Z,6.66
2023-04-08T01:38:25.913Z,6.67
2023-04-08T01:41:52.229Z,6.71
2023-04-08T01:49:16.187Z,6.41
2023-04-08T01:57:07.136Z,6.20
2023-04-08T02:01:32.217Z,6.14
2023-04-08T02:05:43.119Z,6.06
2023-04-08T02:09:13.396Z,6.05
2023-04-08T02:13:42.228Z,5.94
2023-04-08T02:18:19.949Z,5.76
2023-04-08T02:22:08.721Z,5.68
2023-04-08T02:25:51.368Z,5.64
2023-04-08T02:29:31.994Z,5.70
2023-04-08T02:41:51.081Z,5.80
2023-04-08T02:45:33.050Z,5.85
2023-04-08T02:54:06.346Z,5.81
2023-04-08T02:58:35.892Z,5.67
2023-04-08T03:03:02.304Z,5.60
2023-04-08T03:06:51.314Z,5.50
2023-04-08T03:14:40.536Z,5.26
2023-04-08T03:18:09.363Z,5.27
2023-04-08T03:21:50.760Z,5.31
2023-04-08T03:26:20.528Z,5.32
2023-04-08T03:30:49.438Z,5.24
2023-04-08T03:34:52.385Z,5.26
2023-04-08T03:39:22.754Z,5.19
2023-04-08T03:47:25.112Z,5.20
2023-04-08T03:51:10.278Z,5.32
2023-04-08T03:55:39.734Z,5.43
2023-04-08T04:00:12.192Z,5.51
2023-04-08T04:08:46.597Z,5.57
2023-04-08T04:12:37.521Z,5.49
2023-04-08T04:16:26.418Z,5.60
2023-04-08T04:19:57.457Z,5.73
2023-04-08T04:24:27.087Z,5.70
2023-04-08T04:28:56.220Z,5.70
2023-04-08T04:33:21.344Z,5.73
2023-04-08T04:36:46.118Z,5.65
2023-04-08T04:40:35.290Z,5.72
2023-04-08T04:47:24.689Z,5.77
2023-04-08T04:51:28.398Z,5.51
2023-04-08T04:55:52.349Z,5.55
2023-04-08T05:00:25.018Z,5.58
2023-04-08T05:07:27.843Z,5.58
2023-04-08T05:11:27.732Z,5.39
2023-04-08T05:15:19.922Z,5.29
2023-04-08T05:19:49.495Z,5.43
2023-04-08T05:24:02.803Z,5.39
2023-04-08T05:27:44.272Z,5.58
2023-04-08T05:31:33.104Z,5.75
2023-04-08T05:35:14.511Z,5.89
2023-04-08T05:38:39.052Z,5.98
2023-04-08T05:43:08.462Z,6.18
2023-04-08T05:47:38.866Z,6.21
2023-04-08T05:52:07.808Z,6.23
2023-04-08T05:56:13.188Z,6.29
2023-04-08T06:00:42.106Z,6.27
2023-04-08T06:09:14.286Z,6.69
2023-04-08T06:13:17.887Z,6.78
2023-04-08T06:17:40.617Z,6.72
2023-04-08T06:30:58.238Z,6.95
2023-04-08T06:35:28.617Z,7.06
2023-04-08T06:44:30.399Z,6.78
2023-04-08T06:57:24.399Z,7.05
2023-04-08T07:01:13.472Z,6.92
2023-04-08T07:04:54.903Z,6.87
2023-04-08T07:08:38.951Z,6.79
2023-04-08T07:12:11.985Z,6.73
2023-04-08T07:23:32.469Z,6.90
2023-04-08T07:28:01.960Z,7.10
2023-04-08T07:32:02.953Z,7.38
2023-04-08T07:36:21.938Z,7.68
2023-04-08T07:40:10.925Z,7.85
2023-04-08T07:43:59.952Z,7.91
2023-04-08T07:47:34.950Z,7.75
2023-04-08T07:52:06.895Z,7.83
2023-04-08T07:56:31.815Z,7.79
2023-04-08T08:04:13.877Z,8.17
2023-04-08T08:08:45.152Z,8.32
2023-04-08T08:12:51.061Z,8.17
2023-04-08T08:17:20.629Z,8.39
2023-04-08T08:25:49.053Z,8.39
2023-04-08T08:30:01.593Z,8.42
2023-04-08T08:33:55.041Z,8.34
2023-04-08T08:37:48.599Z,8.61
2023-04-08T08:41:45.367Z,8.70
2023-04-08T08:45:26.031Z,8.89
2023-04-08T08:52:19.595Z,8.81
2023-04-08T08:56:22.182Z,8.75
2023-04-08T08:59:46.852Z,8.62
2023-04-08T09:03:29.098Z,8.73
2023-04-08T09:07:18.650Z,8.78
2023-04-08T09:11:09.107Z,8.79
2023-04-08T09:14:58.842Z,8.66
2023-04-08T09:18:40.702Z,8.43
2023-04-08T09:26:24.767Z,9.29
2023-04-08T09:30:14.793Z,9.32
2023-04-08T09:33:40.602Z,9.78
2023-04-08T09:37:13.747Z,9.90
2023-04-08T09:41:03.757Z,10.04
2023-04-08T09:44:56.525Z,9.45
2023-04-08T09:48:51.392Z,9.44
2023-04-08T09:52:50.204Z,9.54
2023-04-08T09:56:31.847Z,9.40
2023-04-08T09:59:58.886Z,9.53
2023-04-08T10:04:38.465Z,10.21
2023-04-08T10:08:47.694Z,10.38
2023-04-08T10:12:11.004Z,10.50
2023-04-08T10:16:08.680Z,10.74
2023-04-08T10:19:56.117Z,10.47
2023-04-08T10:23:24.256Z,10.74
2023-04-08T10:31:50.740Z,11.14
2023-04-08T10:35:23.996Z,11.16
2023-04-08T10:39:05.695Z,11.40
2023-04-08T10:43:10.347Z,11.33
2023-04-08T10:46:27.888Z,11.89
2023-04-08T10:50:54.604Z,12.15
2023-04-08T10:54:56.628Z,11.99
2023-04-08T10:59:06.118Z,11.64
2023-04-08T11:02:58.580Z,11.61
2023-04-08T11:06:47.212Z,12.44
2023-04-08T11:10:54.161Z,13.07
2023-04-08T11:14:44.182Z,12.99
2023-04-08T11:18:30.456Z,13.06
2023-04-08T11:22:40.945Z,13.05
2023-04-08T11:26:13.144Z,12.72
2023-04-08T11:30:43.981Z,12.91
2023-04-08T11:34:53.990Z,12.54
2023-04-08T11:39:05.267Z,12.74
2023-04-08T11:43:07.182Z,12.62
2023-04-08T11:47:01.981Z,12.76
2023-04-08T11:51:04.224Z,13.03
2023-04-08T11:55:11.328Z,12.94
2023-04-08T11:59:02.479Z,13.12
2023-04-08T12:02:53.093Z,12.83
2023-04-08T12:06:42.947Z,12.64
2023-04-08T12:10:33.257Z,12.41
2023-04-08T12:14:22.569Z,12.53
2023-04-08T12:18:14.413Z,12.45
2023-04-08T12:33:24.739Z,12.72
2023-04-08T12:37:55.230Z,13.15
2023-04-08T12:42:25.206Z,12.84
2023-04-08T12:46:57.270Z,12.49
2023-04-08T12:51:34.503Z,12.27
2023-04-08T12:56:12.471Z,11.99
2023-04-08T13:00:43.037Z,12.67
2023-04-08T13:05:13.348Z,12.57
2023-04-08T13:09:22.621Z,13.41
2023-04-08T13:13:51.900Z,13.98
2023-04-08T13:18:21.098Z,14.65
2023-04-08T13:22:51.266Z,15.23
2023-04-08T13:27:21.095Z,15.60
2023-04-08T13:31:50.495Z,16.32
2023-04-08T13:36:22.730Z,15.62
2023-04-08T13:40:51.867Z,16.39
2023-04-08T13:45:22.813Z,15.54
2023-04-08T13:49:52.453Z,16.22
2023-04-08T13:54:22.840Z,15.72
2023-04-08T13:58:57.232Z,15.25
2023-04-08T14:03:22.126Z,15.28
2023-04-08T14:07:52.102Z,15.19
2023-04-08T14:12:21.802Z,15.89
2023-04-08T14:16:51.745Z,15.71
2023-04-08T14:21:21.749Z,15.79
2023-04-08T14:25:51.432Z,16.58
2023-04-08T14:30:21.979Z,16.25
2023-04-08T14:34:52.806Z,16.22
2023-04-08T14:39:24.167Z,17.03
2023-04-08T14:43:54.439Z,16.51
2023-04-08T14:48:26.245Z,16.28
2023-04-08T14:52:57.427Z,17.18
2023-04-08T14:57:30.812Z,17.77
2023-04-08T15:02:00.901Z,18.39
2023-04-08T15:06:30.132Z,18.02
2023-04-08T15:11:05.264Z,18.30
2023-04-08T15:15:39.603Z,18.18
2023-04-08T15:20:10.761Z,18.15
2023-04-08T15:24:41.896Z,18.32
2023-04-08T15:29:13.050Z,18.32
2023-04-08T15:33:47.587Z,17.85
2023-04-08T15:38:15.966Z,17.01
2023-04-08T15:42:45.646Z,16.84
2023-04-08T15:47:18.519Z,17.63
2023-04-08T15:51:52.460Z,18.14
2023-04-08T15:56:23.480Z,18.38
2023-04-08T16:00:53.841Z,17.71
2023-04-08T16:05:23.183Z,17.06
2023-04-08T16:09:53.202Z,15.86
2023-04-08T16:14:22.450Z,14.70
2023-04-08T16:18:52.374Z,14.07
2023-04-08T16:23:22.604Z,13.97
2023-04-08T16:27:52.499Z,13.74
2023-04-08T16:32:22.655Z,13.66
2023-04-08T16:36:52.657Z,13.63
2023-04-08T16:41:22.293Z,13.47
2023-04-08T16:45:52.130Z,13.52
2023-04-08T16:50:22.051Z,13.49
2023-04-08T16:54:55.312Z,13.55
2023-04-08T16:59:24.642Z,13.47
2023-04-08T17:03:56.915Z,13.32
2023-04-08T17:08:27.349Z,13.34
2023-04-08T17:12:59.039Z,13.38
2023-04-08T17:17:29.211Z,13.25
2023-04-08T17:22:00.600Z,13.06
2023-04-08T17:26:30.658Z,12.62
2023-04-08T17:31:00.929Z,12.04
2023-04-08T17:35:30.992Z,11.59
2023-04-08T17:40:02.338Z,11.07
2023-04-08T17:44:34.465Z,10.79
2023-04-08T17:49:06.102Z,10.86
2023-04-08T17:53:37.318Z,10.77
2023-04-08T17:58:07.769Z,10.49
2023-04-08T18:02:38.627Z,10.14
2023-04-08T18:07:10.698Z,9.77
2023-04-08T18:11:40.612Z,9.54
2023-04-08T18:16:12.272Z,9.24
2023-04-08T18:20:43.336Z,9.03
2023-04-08T18:25:15.214Z,8.86
2023-04-08T18:29:46.790Z,8.70
2023-04-08T18:34:20.118Z,8.55
2023-04-08T18:38:56.261Z,8.45
2023-04-08T18:43:50.944Z,8.34
2023-04-08T18:48:01.243Z,8.08
2023-04-08T18:52:35.091Z,7.84
2023-04-08T18:57:07.028Z,7.67
2023-04-08T19:01:39.398Z,7.33
2023-04-08T19:06:10.720Z,7.03
2023-04-08T19:10:42.640Z,6.82
2023-04-08T19:16:32.624Z,6.85
2023-04-08T19:19:29.005Z,6.88
2023-04-08T19:24:00.101Z,6.81
2023-04-08T19:28:32.131Z,7.02
2023-04-08T19:33:04.966Z,7.39
2023-04-08T19:37:40.127Z,7.58
2023-04-08T19:42:09.954Z,7.65
2023-04-08T19:46:44.574Z,7.71
2023-04-08T19:51:19.305Z,7.81
2023-04-08T19:55:58.749Z,7.79
2023-04-08T20:00:30.835Z,7.78
2023-04-08T20:06:25.358Z,7.67
2023-04-08T20:09:39.028Z,7.50
2023-04-08T20:14:09.502Z,7.36
2023-04-08T20:18:40.154Z,7.30
2023-04-08T20:23:10.848Z,7.17
2023-04-08T20:27:41.085Z,7.04
2023-04-08T20:32:10.684Z,6.79
2023-04-08T20:36:40.937Z,6.70
2023-04-08T20:41:10.610Z,6.81
2023-04-08T20:45:43.221Z,6.85
2023-04-08T20:50:14.864Z,6.99
2023-04-08T20:54:47.345Z,7.16
2023-04-08T20:59:17.375Z,7.22
2023-04-08T21:03:49.873Z,7.26
2023-04-08T21:08:19.238Z,7.32
2023-04-08T21:12:48.667Z,7.05
2023-04-08T21:17:18.297Z,7.06
2023-04-08T21:21:47.553Z,6.92
2023-04-08T21:26:17.482Z,6.99
2023-04-08T21:30:47.634Z,6.72
2023-04-08T21:35:17.031Z,6.46
2023-04-08T21:39:46.227Z,6.58
2023-04-08T21:44:16.307Z,6.65
2023-04-08T21:48:46.451Z,6.76
2023-04-08T21:53:16.567Z,6.99
2023-04-08T21:57:47.222Z,7.34
2023-04-08T22:02:16.573Z,7.49
2023-04-08T22:06:46.326Z,7.64
2023-04-08T22:11:16.135Z,7.65
2023-04-08T22:15:46.036Z,7.60
2023-04-08T22:20:15.816Z,7.56
2023-04-08T22:24:45.098Z,7.53
2023-04-08T22:29:14.313Z,7.52
2023-04-08T22:33:43.832Z,7.47
2023-04-08T22:38:12.771Z,7.47
2023-04-08T22:42:41.550Z,7.41
2023-04-08T22:47:10.821Z,7.40
2023-04-08T22:51:39.714Z,7.35
2023-04-08T22:56:09.443Z,7.32
2023-04-08T23:00:38.579Z,7.26
2023-04-08T23:05:08.465Z,7.27
2023-04-08T23:09:40.513Z,7.21
2023-04-08T23:14:09.696Z,7.25
2023-04-08T23:18:40.237Z,7.17
2023-04-08T23:23:09.949Z,7.19
2023-04-08T23:27:39.303Z,7.23
2023-04-08T23:32:08.249Z,7.22
2023-04-08T23:36:37.086Z,7.22
2023-04-08T23:41:06.216Z,7.20
2023-04-08T23:45:35.380Z,7.21
2023-04-08T23:50:04.540Z,7.25
2023-04-08T23:54:33.764Z,7.19
2023-04-08T23:59:02.515Z,7.30
